createdAt,value
2022-10-12T00:01:53.108Z,2.10
2022-10-12T00:06:54.812Z,2.17
2022-10-12T00:11:56.485Z,1.60
2022-10-12T00:16:58.208Z,1.50
2022-10-12T00:21:59.856Z,1.40
2022-10-12T00:27:01.826Z,1.40
2022-10-12T00:32:03.658Z,1.75
2022-10-12T00:37:05.465Z,2.20
2022-10-12T00:42:07.112Z,1.73
2022-10-12T00:47:51.903Z,1.65
2022-10-12T00:53:05.022Z,1.98
2022-10-12T00:58:08.770Z,1.65
2022-10-12T01:03:14.459Z,1.58
2022-10-12T01:08:16.136Z,1.85
2022-10-12T01:13:18.318Z,1.83
2022-10-12T01:18:25.808Z,1.55
2022-10-12T01:23:50.404Z,1.50
2022-10-12T01:29:03.999Z,1.75
2022-10-12T01:34:33.185Z,1.55
2022-10-12T01:39:41.285Z,1.63
2022-10-12T01:44:43.117Z,1.80
2022-10-12T01:49:44.880Z,1.50
2022-10-12T01:55:08.223Z,1.35
2022-10-12T02:00:13.035Z,1.70
2022-10-12T02:05:25.025Z,1.52
2022-10-12T02:10:36.876Z,1.65
2022-10-12T02:15:40.326Z,1.40
2022-10-12T02:20:42.620Z,1.60
2022-10-12T02:25:46.152Z,1.73
2022-10-12T02:30:59.236Z,1.50
2022-10-12T02:36:08.876Z,1.65
2022-10-12T02:41:29.798Z,1.67
2022-10-12T02:46:34.316Z,1.33
2022-10-12T02:51:36.926Z,1.60
2022-10-12T02:56:45.920Z,1.20
2022-10-12T03:01:47.924Z,1.48
2022-10-12T03:06:49.613Z,1.27
2022-10-12T03:11:51.214Z,1.80
2022-10-12T03:16:53.014Z,1.35
2022-10-12T03:21:54.689Z,1.40
2022-10-12T03:26:56.384Z,1.60
2022-10-12T03:31:58.021Z,1.42
2022-10-12T03:36:59.666Z,1.30
2022-10-12T03:42:01.538Z,1.13
2022-10-12T03:47:03.550Z,1.35
2022-10-12T03:52:05.482Z,0.95
2022-10-12T03:57:07.105Z,1.15
2022-10-12T04:02:11.053Z,1.40
2022-10-12T04:07:16.125Z,1.27
2022-10-12T04:12:17.792Z,1.48
2022-10-12T04:17:19.570Z,1.15
2022-10-12T04:22:21.214Z,1.20
2022-10-12T04:27:22.817Z,1.35
2022-10-12T04:32:24.541Z,1.50
2022-10-12T04:37:27.784Z,1.42
2022-10-12T04:42:29.717Z,1.08
2022-10-12T04:47:33.221Z,1.25
2022-10-12T04:52:34.975Z,1.17
2022-10-12T04:57:37.021Z,1.25
2022-10-12T05:02:38.988Z,1.65
2022-10-12T05:07:41.026Z,1.40
2022-10-12T05:12:42.937Z,1.60
2022-10-12T05:17:44.636Z,1.20
2022-10-12T05:22:46.286Z,1.35
2022-10-12T05:27:47.905Z,1.40
2022-10-12T05:32:49.901Z,1.15
2022-10-12T05:37:51.604Z,1.38
2022-10-12T05:42:53.327Z,1.55
2022-10-12T05:47:55.023Z,1.42
2022-10-12T05:52:56.677Z,1.50
2022-10-12T05:57:58.422Z,1.42
2022-10-12T06:03:00.048Z,1.35
2022-10-12T06:08:02.221Z,1.80
2022-10-12T06:13:04.149Z,1.52
2022-10-12T06:18:05.925Z,1.27
2022-10-12T06:23:07.570Z,1.45
2022-10-12T06:28:09.440Z,1.48
2022-10-12T06:33:11.119Z,1.27
2022-10-12T06:38:12.735Z,1.42
2022-10-12T06:43:14.511Z,1.65
2022-10-12T06:48:18.576Z,1.30
2022-10-12T06:53:20.733Z,1.38
2022-10-12T06:58:22.353Z,1.65
2022-10-12T07:03:23.990Z,1.20
2022-10-12T07:08:25.600Z,1.17
2022-10-12T07:13:27.344Z,1.63
2022-10-12T07:18:28.970Z,1.40
2022-10-12T07:23:32.154Z,1.60
2022-10-12T07:28:35.566Z,1.23
2022-10-12T07:33:40.888Z,1.20
2022-10-12T07:38:46.966Z,1.25
2022-10-12T07:43:48.658Z,1.20
2022-10-12T07:48:50.666Z,1.55
2022-10-12T07:53:52.348Z,1.40
2022-10-12T07:58:55.858Z,1.48
2022-10-12T08:04:01.844Z,1.23
2022-10-12T08:09:04.222Z,1.40
2022-10-12T08:14:06.730Z,1.60
2022-10-12T08:19:08.416Z,1.55
2022-10-12T08:24:12.512Z,1.70
2022-10-12T08:29:14.199Z,1.70
2022-10-12T08:34:16.897Z,1.77
2022-10-12T08:39:18.651Z,1.42
2022-10-12T08:44:40.637Z,1.50
2022-10-12T08:49:49.430Z,1.50
2022-10-12T08:54:52.490Z,1.40
2022-10-12T08:59:54.165Z,1.50
2022-10-12T09:05:01.304Z,1.35
2022-10-12T09:10:32.305Z,1.50
2022-10-12T09:15:41.693Z,1.83
2022-10-12T09:20:53.133Z,1.50
2022-10-12T09:26:00.534Z,1.27
2022-10-12T09:36:25.449Z,1.50
2022-10-12T09:41:33.645Z,1.30
2022-10-12T09:46:46.361Z,1.50
2022-10-12T09:51:48.645Z,1.33
2022-10-12T09:56:52.253Z,2.38
2022-10-12T10:02:07.877Z,1.15
2022-10-12T10:07:30.225Z,1.85
2022-10-12T10:12:32.112Z,1.52
2022-10-12T10:17:34.433Z,1.75
2022-10-12T10:22:36.268Z,1.40
2022-10-12T10:27:39.828Z,1.60
2022-10-12T10:32:42.186Z,1.40
2022-10-12T10:37:49.386Z,1.00
2022-10-12T10:48:01.302Z,1.38
2022-10-12T10:53:10.321Z,1.00
2022-10-12T10:58:33.600Z,1.38
2022-10-12T11:03:45.968Z,1.10
2022-10-12T11:08:52.972Z,1.40
2022-10-12T11:14:05.455Z,1.30
2022-10-12T11:19:18.445Z,1.30
2022-10-12T11:25:02.167Z,1.20
2022-10-12T11:30:18.050Z,1.58
2022-10-12T11:35:28.794Z,1.20
2022-10-12T11:41:02.604Z,1.27
2022-10-12T11:46:06.279Z,1.60
2022-10-12T11:51:08.465Z,1.23
2022-10-12T11:56:22.067Z,1.38
2022-10-12T12:01:43.254Z,1.02
2022-10-12T12:06:44.961Z,1.25
2022-10-12T12:11:46.817Z,1.27
2022-10-12T12:16:49.721Z,1.05
2022-10-12T12:22:28.899Z,1.23
2022-10-12T12:27:43.872Z,1.20
2022-10-12T12:32:54.781Z,1.42
2022-10-12T12:38:27.553Z,1.20
2022-10-12T12:43:29.169Z,1.17
2022-10-12T12:48:42.798Z,1.65
2022-10-12T12:53:52.663Z,1.10
2022-10-12T12:59:01.251Z,1.30
2022-10-12T13:04:38.362Z,1.50
2022-10-12T13:15:00.967Z,1.13
2022-10-12T13:20:15.667Z,1.05
2022-10-12T13:25:40.150Z,1.02
2022-10-12T13:31:00.570Z,1.10
2022-10-12T13:36:10.578Z,1.20
2022-10-12T13:41:18.621Z,1.08
2022-10-12T13:46:59.229Z,1.17
2022-10-12T13:52:16.040Z,1.27
2022-10-12T14:02:31.532Z,0.85
2022-10-12T14:07:37.737Z,1.23
2022-10-12T14:12:39.972Z,1.20
2022-10-12T14:17:44.561Z,1.20
2022-10-12T14:22:48.650Z,1.70
2022-10-12T14:28:05.308Z,1.27
2022-10-12T14:33:23.103Z,1.20
2022-10-12T14:38:38.798Z,1.42
2022-10-12T14:43:40.544Z,1.30
2022-10-12T14:48:42.222Z,0.93
2022-10-12T14:53:44.159Z,1.30
2022-10-12T14:58:45.866Z,1.20
2022-10-12T15:03:47.808Z,1.27
2022-10-12T15:08:49.520Z,1.30
2022-10-12T15:13:51.272Z,1.38
2022-10-12T15:18:52.982Z,1.33
2022-10-12T15:23:54.649Z,1.23
2022-10-12T15:28:56.400Z,1.13
2022-10-12T15:33:58.182Z,1.75
2022-10-12T15:38:59.918Z,1.30
2022-10-12T15:44:01.881Z,1.27
2022-10-12T15:49:03.765Z,1.48
2022-10-12T15:54:05.626Z,1.30
2022-10-12T15:59:07.316Z,1.30
2022-10-12T16:04:15.096Z,1.40
2022-10-12T16:09:16.780Z,1.30
2022-10-12T16:14:18.482Z,1.50
2022-10-12T16:19:20.191Z,1.40
2022-10-12T16:24:21.983Z,1.48
2022-10-12T16:29:23.616Z,1.90
2022-10-12T16:34:25.213Z,1.67
2022-10-12T16:39:29.894Z,1.35
2022-10-12T16:44:31.805Z,2.03
2022-10-12T16:49:33.768Z,2.22
2022-10-12T16:54:35.475Z,1.63
2022-10-12T16:59:37.089Z,1.55
2022-10-12T17:04:38.766Z,2.00
2022-10-12T17:09:40.574Z,2.42
2022-10-12T17:14:42.394Z,2.08
2022-10-12T17:19:44.392Z,2.08
2022-10-12T17:24:46.383Z,2.50
2022-10-12T17:29:48.150Z,3.10
2022-10-12T17:34:49.847Z,4.40
2022-10-12T17:39:51.621Z,3.45
2022-10-12T17:44:53.700Z,2.40
2022-10-12T17:49:55.383Z,3.10
2022-10-12T17:54:57.106Z,3.50
2022-10-12T17:59:58.730Z,2.88
2022-10-12T18:05:00.376Z,2.38
2022-10-12T18:10:02.099Z,3.20
2022-10-12T18:15:07.309Z,2.85
2022-10-12T18:20:09.407Z,2.60
2022-10-12T18:25:11.188Z,5.20
2022-10-12T18:30:13.037Z,5.00
2022-10-12T18:35:14.761Z,4.63
2022-10-12T18:40:16.688Z,4.88
2022-10-12T18:45:18.535Z,5.38
2022-10-12T18:50:20.607Z,3.55
2022-10-12T18:55:22.319Z,4.30
2022-10-12T19:00:24.374Z,3.30
2022-10-12T19:05:26.112Z,3.47
2022-10-12T19:10:27.848Z,3.13
2022-10-12T19:15:30.605Z,2.95
2022-10-12T19:20:35.570Z,3.50
2022-10-12T19:25:38.505Z,2.40
2022-10-12T19:30:40.278Z,2.15
2022-10-12T19:35:41.901Z,2.50
2022-10-12T19:40:43.902Z,2.83
2022-10-12T19:45:45.570Z,2.20
2022-10-12T19:50:47.333Z,2.42
2022-10-12T19:55:49.625Z,2.08
2022-10-12T20:00:51.317Z,2.33
2022-10-12T20:05:53.167Z,2.13
2022-10-12T20:10:54.871Z,2.50
2022-10-12T20:15:57.214Z,2.10
2022-10-12T20:21:00.461Z,2.13
2022-10-12T20:26:24.259Z,1.83
2022-10-12T20:31:27.910Z,2.67
2022-10-12T20:36:30.866Z,2.42
2022-10-12T20:41:32.635Z,2.33
2022-10-12T20:46:34.409Z,2.60
2022-10-12T20:51:37.097Z,2.45
2022-10-12T20:56:40.917Z,2.95
2022-10-12T21:01:42.697Z,2.40
2022-10-12T21:06:44.425Z,2.60
2022-10-12T21:11:46.166Z,2.55
2022-10-12T21:16:48.040Z,2.67
2022-10-12T21:21:49.775Z,2.10
2022-10-12T21:26:51.846Z,2.53
2022-10-12T21:31:53.493Z,2.72
2022-10-12T21:36:55.442Z,2.80
2022-10-12T21:41:57.160Z,2.50
2022-10-12T21:46:58.809Z,2.80
2022-10-12T21:52:00.497Z,2.45
2022-10-12T21:57:02.103Z,2.35
2022-10-12T22:02:04.838Z,2.65
2022-10-12T22:07:06.537Z,2.70
2022-10-12T22:12:08.290Z,2.55
2022-10-12T22:17:10.021Z,2.47
2022-10-12T22:22:13.084Z,2.83
2022-10-12T22:27:14.803Z,2.80
2022-10-12T22:32:16.774Z,2.88
2022-10-12T22:37:18.524Z,2.88
2022-10-12T22:42:20.312Z,2.78
2022-10-12T22:47:22.494Z,2.90
2022-10-12T22:52:24.903Z,2.63
2022-10-12T22:57:26.652Z,2.78
2022-10-12T23:02:29.804Z,2.83
2022-10-12T23:07:31.418Z,2.47
2022-10-12T23:12:33.506Z,2.58
2022-10-12T23:17:35.309Z,3.08
2022-10-12T23:22:37.008Z,2.85
2022-10-12T23:27:38.638Z,3.00
2022-10-12T23:32:40.700Z,2.70
2022-10-12T23:37:44.256Z,3.45
2022-10-12T23:42:46.140Z,3.28
2022-10-12T23:47:47.741Z,3.42
2022-10-12T23:52:49.429Z,3.90
2022-10-12T23:57:51.065Z,2.95
